sensor_id;sensor_type;location;lat;lon;timestamp;pressure;altitude;pressure_sealevel;temperature
33267;BMP180;19638;49.080;11.896;2023-06-01T00:03:45;96566.00;;;14.30
33267;BMP180;19638;49.080;11.896;2023-06-01T00:07:49;96566.00;;;14.10
33267;BMP180;19638;49.080;11.896;2023-06-01T00:11:52;96564.00;;;13.90
33267;BMP180;19638;49.080;11.896;2023-06-01T00:15:55;96564.00;;;13.90
33267;BMP180;19638;49.080;11.896;2023-06-01T00:20:04;96557.00;;;14.00
33267;BMP180;19638;49.080;11.896;2023-06-01T00:24:10;96560.00;;;13.90
33267;BMP180;19638;49.080;11.896;2023-06-01T00:28:15;96555.00;;;14.00
33267;BMP180;19638;49.080;11.896;2023-06-01T00:32:19;96553.00;;;13.90
33267;BMP180;19638;49.080;11.896;2023-06-01T00:36:24;96557.00;;;13.80
33267;BMP180;19638;49.080;11.896;2023-06-01T00:40:36;96550.00;;;13.70
33267;BMP180;19638;49.080;11.896;2023-06-01T00:44:45;96541.00;;;13.60
33267;BMP180;19638;49.080;11.896;2023-06-01T00:48:48;96547.00;;;13.30
33267;BMP180;19638;49.080;11.896;2023-06-01T00:52:55;96543.00;;;13.10
33267;BMP180;19638;49.080;11.896;2023-06-01T00:57:01;96538.00;;;12.90
33267;BMP180;19638;49.080;11.896;2023-06-01T01:01:05;96537.00;;;12.80
33267;BMP180;19638;49.080;11.896;2023-06-01T01:05:10;96530.00;;;12.60
33267;BMP180;19638;49.080;11.896;2023-06-01T01:09:25;96528.00;;;12.40
33267;BMP180;19638;49.080;11.896;2023-06-01T01:13:41;96531.00;;;12.30
33267;BMP180;19638;49.080;11.896;2023-06-01T01:18:02;96534.00;;;12.10
33267;BMP180;19638;49.080;11.896;2023-06-01T01:22:16;96537.00;;;12.00
33267;BMP180;19638;49.080;11.896;2023-06-01T01:26:34;96537.00;;;11.90
33267;BMP180;19638;49.080;11.896;2023-06-01T01:30:46;96530.00;;;11.80
33267;BMP180;19638;49.080;11.896;2023-06-01T01:34:50;96530.00;;;11.70
33267;BMP180;19638;49.080;11.896;2023-06-01T01:38:56;96527.00;;;11.70
33267;BMP180;19638;49.080;11.896;2023-06-01T01:43:00;96520.00;;;11.60
33267;BMP180;19638;49.080;11.896;2023-06-01T01:47:12;96519.00;;;11.70
33267;BMP180;19638;49.080;11.896;2023-06-01T01:51:22;96511.00;;;11.70
33267;BMP180;19638;49.080;11.896;2023-06-01T01:55:28;96504.00;;;11.60
33267;BMP180;19638;49.080;11.896;2023-06-01T01:59:33;96502.00;;;11.60
33267;BMP180;19638;49.080;11.896;2023-06-01T02:03:37;96506.00;;;11.60
33267;BMP180;19638;49.080;11.896;2023-06-01T02:07:41;96505.00;;;11.50
33267;BMP180;19638;49.080;11.896;2023-06-01T02:11:52;96498.00;;;11.50
33267;BMP180;19638;49.080;11.896;2023-06-01T02:15:55;96500.00;;;11.40
33267;BMP180;19638;49.080;11.896;2023-06-01T02:20:06;96491.00;;;11.30
33267;BMP180;19638;49.080;11.896;2023-06-01T02:24:09;96494.00;;;11.30
33267;BMP180;19638;49.080;11.896;2023-06-01T02:28:12;96488.00;;;11.30
33267;BMP180;19638;49.080;11.896;2023-06-01T02:32:15;96493.00;;;11.50
33267;BMP180;19638;49.080;11.896;2023-06-01T02:36:20;96479.00;;;11.80
33267;BMP180;19638;49.080;11.896;2023-06-01T02:40:24;96483.00;;;12.00
33267;BMP180;19638;49.080;11.896;2023-06-01T02:44:27;96478.00;;;12.40
33267;BMP180;19638;49.080;11.896;2023-06-01T02:48:38;96476.00;;;12.70
33267;BMP180;19638;49.080;11.896;2023-06-01T02:52:43;96475.00;;;12.50
33267;BMP180;19638;49.080;11.896;2023-06-01T02:56:52;96471.00;;;12.20
33267;BMP180;19638;49.080;11.896;2023-06-01T03:05:08;96473.00;;;12.00
33267;BMP180;19638;49.080;11.896;2023-06-01T03:09:12;96473.00;;;11.80
33267;BMP180;19638;49.080;11.896;2023-06-01T03:13:18;96471.00;;;11.60
33267;BMP180;19638;49.080;11.896;2023-06-01T03:17:21;96480.00;;;11.40
33267;BMP180;19638;49.080;11.896;2023-06-01T03:21:24;96474.00;;;11.40
33267;BMP180;19638;49.080;11.896;2023-06-01T03:25:30;96477.00;;;11.20
33267;BMP180;19638;49.080;11.896;2023-06-01T03:29:35;96480.00;;;11.10
33267;BMP180;19638;49.080;11.896;2023-06-01T03:33:38;96479.00;;;11.10
33267;BMP180;19638;49.080;11.896;2023-06-01T03:37:44;96480.00;;;11.10
33267;BMP180;19638;49.080;11.896;2023-06-01T03:41:53;96486.00;;;11.10
33267;BMP180;19638;49.080;11.896;2023-06-01T03:46:03;96478.00;;;11.20
33267;BMP180;19638;49.080;11.896;2023-06-01T03:50:09;96487.00;;;11.50
33267;BMP180;19638;49.080;11.896;2023-06-01T03:54:12;96479.00;;;11.80
33267;BMP180;19638;49.080;11.896;2023-06-01T03:58:24;96483.00;;;12.00
33267;BMP180;19638;49.080;11.896;2023-06-01T04:02:28;96486.00;;;12.00
33267;BMP180;19638;49.080;11.896;2023-06-01T04:06:33;96485.00;;;12.20
33267;BMP180;19638;49.080;11.896;2023-06-01T04:10:43;96487.00;;;12.40
33267;BMP180;19638;49.080;11.896;2023-06-01T04:14:50;96487.00;;;12.60
33267;BMP180;19638;49.080;11.896;2023-06-01T04:18:56;96492.00;;;12.90
33267;BMP180;19638;49.080;11.896;2023-06-01T04:22:59;96497.00;;;13.30
33267;BMP180;19638;49.080;11.896;2023-06-01T04:27:05;96500.00;;;13.80
33267;BMP180;19638;49.080;11.896;2023-06-01T04:31:11;96501.00;;;14.30
33267;BMP180;19638;49.080;11.896;2023-06-01T04:35:18;96498.00;;;14.90
33267;BMP180;19638;49.080;11.896;2023-06-01T04:39:23;96502.00;;;15.50
33267;BMP180;19638;49.080;11.896;2023-06-01T04:43:27;96506.00;;;15.90
33267;BMP180;19638;49.080;11.896;2023-06-01T04:47:31;96502.00;;;16.30
33267;BMP180;19638;49.080;11.896;2023-06-01T04:51:45;96503.00;;;16.80
33267;BMP180;19638;49.080;11.896;2023-06-01T04:55:58;96505.00;;;17.20
33267;BMP180;19638;49.080;11.896;2023-06-01T05:00:01;96502.00;;;17.80
33267;BMP180;19638;49.080;11.896;2023-06-01T05:04:08;96511.00;;;18.30
33267;BMP180;19638;49.080;11.896;2023-06-01T05:08:11;96505.00;;;18.60
33267;BMP180;19638;49.080;11.896;2023-06-01T05:12:16;96496.00;;;18.80
33267;BMP180;19638;49.080;11.896;2023-06-01T05:16:25;96506.00;;;19.00
33267;BMP180;19638;49.080;11.896;2023-06-01T05:20:34;96511.00;;;19.30
33267;BMP180;19638;49.080;11.896;2023-06-01T05:24:38;96512.00;;;19.60
33267;BMP180;19638;49.080;11.896;2023-06-01T05:28:44;96516.00;;;20.00
33267;BMP180;19638;49.080;11.896;2023-06-01T05:32:48;96510.00;;;19.90
33267;BMP180;19638;49.080;11.896;2023-06-01T05:36:53;96510.00;;;19.40
33267;BMP180;19638;49.080;11.896;2023-06-01T05:40:56;96505.00;;;19.20
33267;BMP180;19638;49.080;11.896;2023-06-01T05:44:59;96504.00;;;19.20
33267;BMP180;19638;49.080;11.896;2023-06-01T05:49:02;96503.00;;;19.30
33267;BMP180;19638;49.080;11.896;2023-06-01T05:53:09;96494.00;;;19.50
33267;BMP180;19638;49.080;11.896;2023-06-01T05:57:13;96498.00;;;19.90
33267;BMP180;19638;49.080;11.896;2023-06-01T06:01:16;96503.00;;;20.40
33267;BMP180;19638;49.080;11.896;2023-06-01T06:05:22;96506.00;;;20.80
33267;BMP180;19638;49.080;11.896;2023-06-01T06:09:27;96499.00;;;21.10
33267;BMP180;19638;49.080;11.896;2023-06-01T06:13:33;96498.00;;;21.20
33267;BMP180;19638;49.080;11.896;2023-06-01T06:17:36;96506.00;;;21.30
33267;BMP180;19638;49.080;11.896;2023-06-01T06:21:42;96496.00;;;21.00
33267;BMP180;19638;49.080;11.896;2023-06-01T06:25:49;96506.00;;;21.10
33267;BMP180;19638;49.080;11.896;2023-06-01T06:29:54;96511.00;;;21.30
33267;BMP180;19638;49.080;11.896;2023-06-01T06:33:57;96505.00;;;21.60
33267;BMP180;19638;49.080;11.896;2023-06-01T06:38:00;96508.00;;;21.90
33267;BMP180;19638;49.080;11.896;2023-06-01T06:42:05;96504.00;;;22.30
33267;BMP180;19638;49.080;11.896;2023-06-01T06:46:11;96506.00;;;22.50
33267;BMP180;19638;49.080;11.896;2023-06-01T06:50:17;96507.00;;;22.40
33267;BMP180;19638;49.080;11.896;2023-06-01T06:54:23;96518.00;;;22.60
33267;BMP180;19638;49.080;11.896;2023-06-01T06:58:34;96511.00;;;22.90
33267;BMP180;19638;49.080;11.896;2023-06-01T07:02:41;96514.00;;;23.00
33267;BMP180;19638;49.080;11.896;2023-06-01T07:06:47;96517.00;;;23.30
33267;BMP180;19638;49.080;11.896;2023-06-01T07:10:50;96522.00;;;23.30
33267;BMP180;19638;49.080;11.896;2023-06-01T07:14:54;96519.00;;;23.50
33267;BMP180;19638;49.080;11.896;2023-06-01T07:18:57;96515.00;;;23.70
33267;BMP180;19638;49.080;11.896;2023-06-01T07:23:02;96506.00;;;24.00
33267;BMP180;19638;49.080;11.896;2023-06-01T07:27:06;96508.00;;;23.90
33267;BMP180;19638;49.080;11.896;2023-06-01T07:31:11;96516.00;;;24.10
33267;BMP180;19638;49.080;11.896;2023-06-01T07:35:14;96503.00;;;24.30
33267;BMP180;19638;49.080;11.896;2023-06-01T07:39:19;96507.00;;;24.90
33267;BMP180;19638;49.080;11.896;2023-06-01T07:43:25;96507.00;;;25.30
33267;BMP180;19638;49.080;11.896;2023-06-01T07:47:29;96508.00;;;25.50
33267;BMP180;19638;49.080;11.896;2023-06-01T07:51:33;96513.00;;;25.70
33267;BMP180;19638;49.080;11.896;2023-06-01T07:55:37;96508.00;;;26.40
33267;BMP180;19638;49.080;11.896;2023-06-01T07:59:40;96514.00;;;26.80
33267;BMP180;19638;49.080;11.896;2023-06-01T08:03:56;96513.00;;;27.20
33267;BMP180;19638;49.080;11.896;2023-06-01T08:08:03;96509.00;;;27.60
33267;BMP180;19638;49.080;11.896;2023-06-01T08:12:11;96509.00;;;27.90
33267;BMP180;19638;49.080;11.896;2023-06-01T08:16:20;96507.00;;;28.20
33267;BMP180;19638;49.080;11.896;2023-06-01T08:20:29;96506.00;;;28.80
33267;BMP180;19638;49.080;11.896;2023-06-01T08:24:32;96511.00;;;29.10
33267;BMP180;19638;49.080;11.896;2023-06-01T08:28:39;96507.00;;;29.50
33267;BMP180;19638;49.080;11.896;2023-06-01T08:32:42;96505.00;;;29.40
33267;BMP180;19638;49.080;11.896;2023-06-01T08:36:51;96496.00;;;29.50
33267;BMP180;19638;49.080;11.896;2023-06-01T08:40:56;96497.00;;;29.50
33267;BMP180;19638;49.080;11.896;2023-06-01T08:45:04;96501.00;;;30.20
33267;BMP180;19638;49.080;11.896;2023-06-01T08:49:10;96496.00;;;30.00
33267;BMP180;19638;49.080;11.896;2023-06-01T08:53:19;96498.00;;;30.10
33267;BMP180;19638;49.080;11.896;2023-06-01T08:57:23;96492.00;;;30.90
33267;BMP180;19638;49.080;11.896;2023-06-01T09:01:27;96500.00;;;31.70
33267;BMP180;19638;49.080;11.896;2023-06-01T09:05:33;96495.00;;;32.00
33267;BMP180;19638;49.080;11.896;2023-06-01T09:09:38;96497.00;;;31.90
33267;BMP180;19638;49.080;11.896;2023-06-01T09:13:44;96491.00;;;32.40
33267;BMP180;19638;49.080;11.896;2023-06-01T09:17:49;96487.00;;;32.50
33267;BMP180;19638;49.080;11.896;2023-06-01T09:21:58;96489.00;;;32.60
33267;BMP180;19638;49.080;11.896;2023-06-01T09:26:08;96480.00;;;32.10
33267;BMP180;19638;49.080;11.896;2023-06-01T09:30:12;96479.00;;;31.90
33267;BMP180;19638;49.080;11.896;2023-06-01T09:34:16;96484.00;;;32.00
33267;BMP180;19638;49.080;11.896;2023-06-01T09:38:21;96478.00;;;32.00
33267;BMP180;19638;49.080;11.896;2023-06-01T09:42:32;96477.00;;;32.50
33267;BMP180;19638;49.080;11.896;2023-06-01T09:46:48;96476.00;;;33.20
33267;BMP180;19638;49.080;11.896;2023-06-01T09:50:53;96477.00;;;34.40
33267;BMP180;19638;49.080;11.896;2023-06-01T09:55:07;96477.00;;;35.10
33267;BMP180;19638;49.080;11.896;2023-06-01T09:59:16;96473.00;;;35.60
33267;BMP180;19638;49.080;11.896;2023-06-01T10:03:22;96474.00;;;35.70
33267;BMP180;19638;49.080;11.896;2023-06-01T10:07:28;96468.00;;;36.00
33267;BMP180;19638;49.080;11.896;2023-06-01T10:11:32;96469.00;;;35.20
33267;BMP180;19638;49.080;11.896;2023-06-01T10:15:41;96461.00;;;34.50
33267;BMP180;19638;49.080;11.896;2023-06-01T10:19:45;96461.00;;;33.90
33267;BMP180;19638;49.080;11.896;2023-06-01T10:23:49;96457.00;;;34.50
33267;BMP180;19638;49.080;11.896;2023-06-01T10:27:58;96463.00;;;35.40
33267;BMP180;19638;49.080;11.896;2023-06-01T10:32:41;96453.00;;;35.10
33267;BMP180;19638;49.080;11.896;2023-06-01T10:37:19;96448.00;;;33.90
33267;BMP180;19638;49.080;11.896;2023-06-01T10:41:31;96446.00;;;34.00
33267;BMP180;19638;49.080;11.896;2023-06-01T10:45:40;96447.00;;;33.40
33267;BMP180;19638;49.080;11.896;2023-06-01T10:50:10;96441.00;;;33.80
33267;BMP180;19638;49.080;11.896;2023-06-01T10:54:30;96435.00;;;33.60
33267;BMP180;19638;49.080;11.896;2023-06-01T10:58:33;96431.00;;;33.80
33267;BMP180;19638;49.080;11.896;2023-06-01T11:02:50;96425.00;;;34.50
33267;BMP180;19638;49.080;11.896;2023-06-01T11:12:00;96426.00;;;34.80
33267;BMP180;19638;49.080;11.896;2023-06-01T11:16:27;96420.00;;;35.10
33267;BMP180;19638;49.080;11.896;2023-06-01T11:20:38;96403.00;;;35.70
33267;BMP180;19638;49.080;11.896;2023-06-01T11:24:46;96403.00;;;36.40
33267;BMP180;19638;49.080;11.896;2023-06-01T11:29:07;96400.00;;;37.20
33267;BMP180;19638;49.080;11.896;2023-06-01T11:33:10;96403.00;;;37.90
33267;BMP180;19638;49.080;11.896;2023-06-01T11:37:15;96401.00;;;38.40
33267;BMP180;19638;49.080;11.896;2023-06-01T11:41:22;96398.00;;;37.10
33267;BMP180;19638;49.080;11.896;2023-06-01T11:45:27;96391.00;;;36.00
33267;BMP180;19638;49.080;11.896;2023-06-01T11:49:31;96390.00;;;35.90
33267;BMP180;19638;49.080;11.896;2023-06-01T11:53:38;96388.00;;;35.80
33267;BMP180;19638;49.080;11.896;2023-06-01T11:57:43;96378.00;;;36.00
33267;BMP180;19638;49.080;11.896;2023-06-01T12:01:48;96378.00;;;35.90
33267;BMP180;19638;49.080;11.896;2023-06-01T12:05:58;96376.00;;;35.50
33267;BMP180;19638;49.080;11.896;2023-06-01T12:10:01;96367.00;;;35.70
33267;BMP180;19638;49.080;11.896;2023-06-01T12:14:08;96375.00;;;35.30
33267;BMP180;19638;49.080;11.896;2023-06-01T12:18:28;96366.00;;;35.90
33267;BMP180;19638;49.080;11.896;2023-06-01T12:22:34;96359.00;;;36.50
33267;BMP180;19638;49.080;11.896;2023-06-01T12:26:37;96366.00;;;36.00
33267;BMP180;19638;49.080;11.896;2023-06-01T12:30:43;96361.00;;;35.00
33267;BMP180;19638;49.080;11.896;2023-06-01T12:35:04;96356.00;;;34.20
33267;BMP180;19638;49.080;11.896;2023-06-01T12:39:08;96353.00;;;33.60
33267;BMP180;19638;49.080;11.896;2023-06-01T12:43:18;96354.00;;;33.00
33267;BMP180;19638;49.080;11.896;2023-06-01T12:47:26;96346.00;;;32.40
33267;BMP180;19638;49.080;11.896;2023-06-01T12:51:29;96348.00;;;31.90
33267;BMP180;19638;49.080;11.896;2023-06-01T12:55:34;96342.00;;;31.60
33267;BMP180;19638;49.080;11.896;2023-06-01T12:59:39;96352.00;;;31.70
33267;BMP180;19638;49.080;11.896;2023-06-01T13:03:45;96338.00;;;31.30
33267;BMP180;19638;49.080;11.896;2023-06-01T13:07:51;96336.00;;;31.40
33267;BMP180;19638;49.080;11.896;2023-06-01T13:11:58;96338.00;;;31.10
33267;BMP180;19638;49.080;11.896;2023-06-01T13:16:02;96340.00;;;31.10
33267;BMP180;19638;49.080;11.896;2023-06-01T13:20:10;96334.00;;;31.40
33267;BMP180;19638;49.080;11.896;2023-06-01T13:24:16;96324.00;;;31.50
33267;BMP180;19638;49.080;11.896;2023-06-01T13:28:19;96324.00;;;31.90
33267;BMP180;19638;49.080;11.896;2023-06-01T13:32:22;96315.00;;;32.60
33267;BMP180;19638;49.080;11.896;2023-06-01T13:36:28;96318.00;;;33.00
33267;BMP180;19638;49.080;11.896;2023-06-01T13:40:31;96310.00;;;33.30
33267;BMP180;19638;49.080;11.896;2023-06-01T13:44:35;96306.00;;;33.50
33267;BMP180;19638;49.080;11.896;2023-06-01T13:48:43;96307.00;;;33.50
33267;BMP180;19638;49.080;11.896;2023-06-01T13:52:48;96293.00;;;33.50
33267;BMP180;19638;49.080;11.896;2023-06-01T13:56:54;96292.00;;;33.90
33267;BMP180;19638;49.080;11.896;2023-06-01T14:00:57;96285.00;;;34.00
33267;BMP180;19638;49.080;11.896;2023-06-01T14:05:03;96283.00;;;34.00
33267;BMP180;19638;49.080;11.896;2023-06-01T14:09:12;96278.00;;;34.30
33267;BMP180;19638;49.080;11.896;2023-06-01T14:13:16;96274.00;;;34.70
33267;BMP180;19638;49.080;11.896;2023-06-01T14:17:26;96272.00;;;34.60
33267;BMP180;19638;49.080;11.896;2023-06-01T14:21:29;96263.00;;;34.60
33267;BMP180;19638;49.080;11.896;2023-06-01T14:25:42;96260.00;;;35.00
33267;BMP180;19638;49.080;11.896;2023-06-01T14:29:49;96261.00;;;35.30
33267;BMP180;19638;49.080;11.896;2023-06-01T14:33:52;96252.00;;;35.20
33267;BMP180;19638;49.080;11.896;2023-06-01T14:37:55;96253.00;;;34.40
33267;BMP180;19638;49.080;11.896;2023-06-01T14:42:00;96251.00;;;33.90
33267;BMP180;19638;49.080;11.896;2023-06-01T14:46:05;96247.00;;;33.80
33267;BMP180;19638;49.080;11.896;2023-06-01T14:50:09;96244.00;;;33.80
33267;BMP180;19638;49.080;11.896;2023-06-01T14:54:16;96238.00;;;34.00
33267;BMP180;19638;49.080;11.896;2023-06-01T14:58:38;96229.00;;;34.20
33267;BMP180;19638;49.080;11.896;2023-06-01T15:02:41;96228.00;;;34.30
33267;BMP180;19638;49.080;11.896;2023-06-01T15:06:45;96220.00;;;34.30
33267;BMP180;19638;49.080;11.896;2023-06-01T15:10:51;96221.00;;;34.10
33267;BMP180;19638;49.080;11.896;2023-06-01T15:14:58;96217.00;;;33.20
33267;BMP180;19638;49.080;11.896;2023-06-01T15:19:01;96215.00;;;32.60
33267;BMP180;19638;49.080;11.896;2023-06-01T15:23:04;96213.00;;;32.20
33267;BMP180;19638;49.080;11.896;2023-06-01T15:27:11;96205.00;;;32.30
33267;BMP180;19638;49.080;11.896;2023-06-01T15:31:15;96207.00;;;32.40
33267;BMP180;19638;49.080;11.896;2023-06-01T15:35:20;96212.00;;;32.40
33267;BMP180;19638;49.080;11.896;2023-06-01T15:39:23;96210.00;;;32.10
33267;BMP180;19638;49.080;11.896;2023-06-01T15:43:26;96209.00;;;31.80
33267;BMP180;19638;49.080;11.896;2023-06-01T15:47:31;96210.00;;;31.40
33267;BMP180;19638;49.080;11.896;2023-06-01T15:51:34;96199.00;;;31.00
33267;BMP180;19638;49.080;11.896;2023-06-01T15:55:38;96196.00;;;30.70
33267;BMP180;19638;49.080;11.896;2023-06-01T15:59:42;96192.00;;;30.40
33267;BMP180;19638;49.080;11.896;2023-06-01T16:03:46;96190.00;;;30.20
33267;BMP180;19638;49.080;11.896;2023-06-01T16:07:51;96191.00;;;30.10
33267;BMP180;19638;49.080;11.896;2023-06-01T16:11:57;96185.00;;;30.10
33267;BMP180;19638;49.080;11.896;2023-06-01T16:16:03;96192.00;;;30.10
33267;BMP180;19638;49.080;11.896;2023-06-01T16:20:11;96188.00;;;29.90
33267;BMP180;19638;49.080;11.896;2023-06-01T16:24:17;96189.00;;;29.80
33267;BMP180;19638;49.080;11.896;2023-06-01T16:28:21;96185.00;;;29.50
33267;BMP180;19638;49.080;11.896;2023-06-01T16:32:24;96182.00;;;29.30
33267;BMP180;19638;49.080;11.896;2023-06-01T16:36:30;96176.00;;;29.10
33267;BMP180;19638;49.080;11.896;2023-06-01T16:40:35;96173.00;;;28.90
33267;BMP180;19638;49.080;11.896;2023-06-01T16:44:38;96178.00;;;28.70
33267;BMP180;19638;49.080;11.896;2023-06-01T16:48:46;96181.00;;;28.60
33267;BMP180;19638;49.080;11.896;2023-06-01T16:52:52;96176.00;;;28.40
33267;BMP180;19638;49.080;11.896;2023-06-01T16:56:56;96174.00;;;28.30
33267;BMP180;19638;49.080;11.896;2023-06-01T17:00:59;96168.00;;;28.20
33267;BMP180;19638;49.080;11.896;2023-06-01T17:05:03;96166.00;;;28.20
33267;BMP180;19638;49.080;11.896;2023-06-01T17:09:11;96168.00;;;28.10
33267;BMP180;19638;49.080;11.896;2023-06-01T17:13:16;96164.00;;;28.10
33267;BMP180;19638;49.080;11.896;2023-06-01T17:17:22;96161.00;;;28.00
33267;BMP180;19638;49.080;11.896;2023-06-01T17:21:28;96162.00;;;28.10
33267;BMP180;19638;49.080;11.896;2023-06-01T17:25:33;96163.00;;;28.20
33267;BMP180;19638;49.080;11.896;2023-06-01T17:29:36;96160.00;;;28.20
33267;BMP180;19638;49.080;11.896;2023-06-01T17:33:39;96157.00;;;28.20
33267;BMP180;19638;49.080;11.896;2023-06-01T17:37:43;96162.00;;;28.10
33267;BMP180;19638;49.080;11.896;2023-06-01T17:41:47;96158.00;;;28.00
33267;BMP180;19638;49.080;11.896;2023-06-01T17:45:51;96156.00;;;27.80
33267;BMP180;19638;49.080;11.896;2023-06-01T17:49:55;96158.00;;;27.70
33267;BMP180;19638;49.080;11.896;2023-06-01T17:53:58;96151.00;;;27.40
33267;BMP180;19638;49.080;11.896;2023-06-01T17:58:02;96154.00;;;27.10
33267;BMP180;19638;49.080;11.896;2023-06-01T18:02:05;96149.00;;;26.60
33267;BMP180;19638;49.080;11.896;2023-06-01T18:06:08;96142.00;;;26.30
33267;BMP180;19638;49.080;11.896;2023-06-01T18:10:12;96138.00;;;26.00
33267;BMP180;19638;49.080;11.896;2023-06-01T18:14:19;96141.00;;;25.70
33267;BMP180;19638;49.080;11.896;2023-06-01T18:18:23;96142.00;;;25.40
33267;BMP180;19638;49.080;11.896;2023-06-01T18:22:27;96137.00;;;25.20
33267;BMP180;19638;49.080;11.896;2023-06-01T18:26:34;96142.00;;;24.90
33267;BMP180;19638;49.080;11.896;2023-06-01T18:30:42;96140.00;;;24.60
33267;BMP180;19638;49.080;11.896;2023-06-01T18:34:45;96142.00;;;24.10
33267;BMP180;19638;49.080;11.896;2023-06-01T18:38:48;96139.00;;;23.70
33267;BMP180;19638;49.080;11.896;2023-06-01T18:42:54;96146.00;;;23.20
33267;BMP180;19638;49.080;11.896;2023-06-01T18:47:05;96148.00;;;22.80
33267;BMP180;19638;49.080;11.896;2023-06-01T18:51:09;96152.00;;;22.40
33267;BMP180;19638;49.080;11.896;2023-06-01T18:55:13;96151.00;;;22.10
33267;BMP180;19638;49.080;11.896;2023-06-01T18:59:19;96145.00;;;21.70
33267;BMP180;19638;49.080;11.896;2023-06-01T19:03:23;96137.00;;;21.40
33267;BMP180;19638;49.080;11.896;2023-06-01T19:07:33;96145.00;;;21.20
33267;BMP180;19638;49.080;11.896;2023-06-01T19:11:36;96151.00;;;21.00
33267;BMP180;19638;49.080;11.896;2023-06-01T19:15:42;96147.00;;;20.80
33267;BMP180;19638;49.080;11.896;2023-06-01T19:19:48;96141.00;;;20.60
33267;BMP180;19638;49.080;11.896;2023-06-01T19:24:04;96147.00;;;20.40
33267;BMP180;19638;49.080;11.896;2023-06-01T19:28:18;96148.00;;;20.20
33267;BMP180;19638;49.080;11.896;2023-06-01T19:32:23;96153.00;;;20.00
33267;BMP180;19638;49.080;11.896;2023-06-01T19:36:48;96152.00;;;19.80
33267;BMP180;19638;49.080;11.896;2023-06-01T19:40:54;96154.00;;;19.60
33267;BMP180;19638;49.080;11.896;2023-06-01T19:44:58;96155.00;;;19.30
33267;BMP180;19638;49.080;11.896;2023-06-01T19:49:02;96167.00;;;19.10
33267;BMP180;19638;49.080;11.896;2023-06-01T19:53:07;96153.00;;;18.80
33267;BMP180;19638;49.080;11.896;2023-06-01T19:57:16;96152.00;;;18.60
33267;BMP180;19638;49.080;11.896;2023-06-01T20:01:22;96151.00;;;18.40
33267;BMP180;19638;49.080;11.896;2023-06-01T20:05:26;96152.00;;;18.30
33267;BMP180;19638;49.080;11.896;2023-06-01T20:09:33;96154.00;;;18.20
33267;BMP180;19638;49.080;11.896;2023-06-01T20:13:40;96158.00;;;18.10
33267;BMP180;19638;49.080;11.896;2023-06-01T20:17:43;96155.00;;;18.00
33267;BMP180;19638;49.080;11.896;2023-06-01T20:21:48;96148.00;;;18.00
33267;BMP180;19638;49.080;11.896;2023-06-01T20:25:54;96156.00;;;17.80
33267;BMP180;19638;49.080;11.896;2023-06-01T20:30:01;96150.00;;;17.70
33267;BMP180;19638;49.080;11.896;2023-06-01T20:34:04;96149.00;;;17.50
33267;BMP180;19638;49.080;11.896;2023-06-01T20:38:12;96148.00;;;17.40
33267;BMP180;19638;49.080;11.896;2023-06-01T20:42:17;96144.00;;;17.20
33267;BMP180;19638;49.080;11.896;2023-06-01T20:46:25;96139.00;;;17.10
33267;BMP180;19638;49.080;11.896;2023-06-01T20:50:33;96147.00;;;17.00
33267;BMP180;19638;49.080;11.896;2023-06-01T20:54:37;96151.00;;;16.90
33267;BMP180;19638;49.080;11.896;2023-06-01T20:58:46;96152.00;;;16.60
33267;BMP180;19638;49.080;11.896;2023-06-01T21:02:49;96148.00;;;16.40
33267;BMP180;19638;49.080;11.896;2023-06-01T21:06:53;96147.00;;;16.20
33267;BMP180;19638;49.080;11.896;2023-06-01T21:10:56;96152.00;;;16.00
33267;BMP180;19638;49.080;11.896;2023-06-01T21:15:01;96146.00;;;15.90
33267;BMP180;19638;49.080;11.896;2023-06-01T21:19:04;96148.00;;;15.80
33267;BMP180;19638;49.080;11.896;2023-06-01T21:23:08;96154.00;;;15.70
33267;BMP180;19638;49.080;11.896;2023-06-01T21:27:14;96157.00;;;16.00
33267;BMP180;19638;49.080;11.896;2023-06-01T21:31:19;96150.00;;;16.60
33267;BMP180;19638;49.080;11.896;2023-06-01T21:35:25;96162.00;;;17.10
33267;BMP180;19638;49.080;11.896;2023-06-01T21:39:37;96147.00;;;17.70
33267;BMP180;19638;49.080;11.896;2023-06-01T21:43:41;96160.00;;;18.30
33267;BMP180;19638;49.080;11.896;2023-06-01T21:47:45;96153.00;;;18.70
33267;BMP180;19638;49.080;11.896;2023-06-01T21:51:49;96153.00;;;18.90
33267;BMP180;19638;49.080;11.896;2023-06-01T21:55:52;96161.00;;;19.00
33267;BMP180;19638;49.080;11.896;2023-06-01T21:59:59;96155.00;;;19.10
33267;BMP180;19638;49.080;11.896;2023-06-01T22:04:06;96164.00;;;19.20
33267;BMP180;19638;49.080;11.896;2023-06-01T22:08:12;96168.00;;;19.20
33267;BMP180;19638;49.080;11.896;2023-06-01T22:12:16;96170.00;;;19.20
33267;BMP180;19638;49.080;11.896;2023-06-01T22:16:19;96163.00;;;19.10
33267;BMP180;19638;49.080;11.896;2023-06-01T22:20:24;96164.00;;;19.10
33267;BMP180;19638;49.080;11.896;2023-06-01T22:24:27;96164.00;;;19.00
33267;BMP180;19638;49.080;11.896;2023-06-01T22:28:31;96160.00;;;18.90
33267;BMP180;19638;49.080;11.896;2023-06-01T22:32:34;96162.00;;;18.80
33267;BMP180;19638;49.080;11.896;2023-06-01T22:36:43;96161.00;;;18.70
33267;BMP180;19638;49.080;11.896;2023-06-01T22:40:47;96162.00;;;18.60
33267;BMP180;19638;49.080;11.896;2023-06-01T22:44:51;96170.00;;;18.50
33267;BMP180;19638;49.080;11.896;2023-06-01T22:48:58;96167.00;;;18.40
33267;BMP180;19638;49.080;11.896;2023-06-01T22:53:06;96162.00;;;18.20
33267;BMP180;19638;49.080;11.896;2023-06-01T22:57:11;96166.00;;;18.20
33267;BMP180;19638;49.080;11.896;2023-06-01T23:01:14;96172.00;;;18.20
33267;BMP180;19638;49.080;11.896;2023-06-01T23:05:18;96174.00;;;18.10
33267;BMP180;19638;49.080;11.896;2023-06-01T23:09:24;96169.00;;;18.10
33267;BMP180;19638;49.080;11.896;2023-06-01T23:13:29;96165.00;;;18.00
33267;BMP180;19638;49.080;11.896;2023-06-01T23:17:37;96162.00;;;18.00
33267;BMP180;19638;49.080;11.896;2023-06-01T23:21:44;96167.00;;;18.00
33267;BMP180;19638;49.080;11.896;2023-06-01T23:25:52;96158.00;;;17.90
33267;BMP180;19638;49.080;11.896;2023-06-01T23:30:04;96167.00;;;17.90